sensor_id;sensor_type;location;lat;lon;timestamp;P1;durP1;ratioP1;P2;durP2;ratioP2
36989;SDS011;22898;52.102;5.776;2023-06-24T00:02:08;6.90;;;1.90;;
36989;SDS011;22898;52.102;5.776;2023-06-24T00:04:34;4.15;;;3.03;;
36989;SDS011;22898;52.102;5.776;2023-06-24T00:07:00;3.30;;;2.67;;
36989;SDS011;22898;52.102;5.776;2023-06-24T00:09:26;3.42;;;2.33;;
36989;SDS011;22898;52.102;5.776;2023-06-24T00:11:53;17.13;;;2.75;;
36989;SDS011;22898;52.102;5.776;2023-06-24T00:14:19;3.28;;;2.08;;
36989;SDS011;22898;52.102;5.776;2023-06-24T00:16:46;2.78;;;2.25;;
36989;SDS011;22898;52.102;5.776;2023-06-24T00:19:14;2.80;;;1.90;;
36989;SDS011;22898;52.102;5.776;2023-06-24T00:21:40;4.70;;;2.53;;
36989;SDS011;22898;52.102;5.776;2023-06-24T00:24:05;4.47;;;2.35;;
36989;SDS011;22898;52.102;5.776;2023-06-24T00:26:31;1.73;;;1.60;;
36989;SDS011;22898;52.102;5.776;2023-06-24T00:28:57;4.75;;;2.13;;
36989;SDS011;22898;52.102;5.776;2023-06-24T00:31:23;4.00;;;2.33;;
36989;SDS011;22898;52.102;5.776;2023-06-24T00:33:49;2.45;;;1.80;;
36989;SDS011;22898;52.102;5.776;2023-06-24T00:36:17;2.92;;;2.25;;
36989;SDS011;22898;52.102;5.776;2023-06-24T00:38:42;3.50;;;2.38;;
36989;SDS011;22898;52.102;5.776;2023-06-24T00:41:08;3.58;;;2.13;;
36989;SDS011;22898;52.102;5.776;2023-06-24T00:43:34;3.92;;;2.40;;
36989;SDS011;22898;52.102;5.776;2023-06-24T00:46:00;4.68;;;2.90;;
36989;SDS011;22898;52.102;5.776;2023-06-24T00:48:27;3.00;;;2.22;;
36989;SDS011;22898;52.102;5.776;2023-06-24T00:50:52;5.05;;;2.28;;
36989;SDS011;22898;52.102;5.776;2023-06-24T00:53:18;4.40;;;2.20;;
36989;SDS011;22898;52.102;5.776;2023-06-24T00:55:45;3.83;;;2.22;;
36989;SDS011;22898;52.102;5.776;2023-06-24T00:58:12;4.07;;;2.20;;
36989;SDS011;22898;52.102;5.776;2023-06-24T01:00:41;3.05;;;2.10;;
36989;SDS011;22898;52.102;5.776;2023-06-24T01:03:09;3.03;;;2.15;;
36989;SDS011;22898;52.102;5.776;2023-06-24T01:05:39;4.85;;;2.13;;
36989;SDS011;22898;52.102;5.776;2023-06-24T01:08:06;6.35;;;2.63;;
36989;SDS011;22898;52.102;5.776;2023-06-24T01:10:31;3.97;;;2.72;;
36989;SDS011;22898;52.102;5.776;2023-06-24T01:12:57;3.33;;;2.38;;
36989;SDS011;22898;52.102;5.776;2023-06-24T01:15:23;2.88;;;1.98;;
36989;SDS011;22898;52.102;5.776;2023-06-24T01:17:55;3.60;;;2.33;;
36989;SDS011;22898;52.102;5.776;2023-06-24T01:20:29;3.88;;;2.17;;
36989;SDS011;22898;52.102;5.776;2023-06-24T01:28:55;2.42;;;1.58;;
36989;SDS011;22898;52.102;5.776;2023-06-24T01:34:21;3.13;;;2.25;;
36989;SDS011;22898;52.102;5.776;2023-06-24T01:37:14;5.67;;;2.27;;
36989;SDS011;22898;52.102;5.776;2023-06-24T01:42:37;2.85;;;2.22;;
36989;SDS011;22898;52.102;5.776;2023-06-24T01:45:06;4.35;;;2.92;;
36989;SDS011;22898;52.102;5.776;2023-06-24T01:47:34;3.60;;;2.22;;
36989;SDS011;22898;52.102;5.776;2023-06-24T01:50:01;3.88;;;2.60;;
36989;SDS011;22898;52.102;5.776;2023-06-24T01:52:28;3.72;;;2.65;;
36989;SDS011;22898;52.102;5.776;2023-06-24T01:54:56;3.60;;;2.40;;
36989;SDS011;22898;52.102;5.776;2023-06-24T01:57:24;3.95;;;2.22;;
36989;SDS011;22898;52.102;5.776;2023-06-24T01:59:52;2.83;;;2.00;;
36989;SDS011;22898;52.102;5.776;2023-06-24T02:02:20;3.00;;;1.83;;
36989;SDS011;22898;52.102;5.776;2023-06-24T02:04:47;5.55;;;3.13;;
36989;SDS011;22898;52.102;5.776;2023-06-24T02:07:14;3.15;;;2.42;;
36989;SDS011;22898;52.102;5.776;2023-06-24T02:09:41;4.10;;;2.10;;
36989;SDS011;22898;52.102;5.776;2023-06-24T02:12:09;4.28;;;2.75;;
36989;SDS011;22898;52.102;5.776;2023-06-24T02:14:36;4.95;;;2.35;;
36989;SDS011;22898;52.102;5.776;2023-06-24T02:17:04;3.17;;;2.25;;
36989;SDS011;22898;52.102;5.776;2023-06-24T02:19:31;3.67;;;2.72;;
36989;SDS011;22898;52.102;5.776;2023-06-24T02:21:58;2.72;;;2.03;;
36989;SDS011;22898;52.102;5.776;2023-06-24T02:24:24;4.82;;;2.33;;
36989;SDS011;22898;52.102;5.776;2023-06-24T02:26:53;5.65;;;2.42;;
36989;SDS011;22898;52.102;5.776;2023-06-24T02:29:19;3.10;;;2.17;;
36989;SDS011;22898;52.102;5.776;2023-06-24T02:31:46;4.03;;;2.42;;
36989;SDS011;22898;52.102;5.776;2023-06-24T02:34:12;2.85;;;2.10;;
36989;SDS011;22898;52.102;5.776;2023-06-24T02:36:39;3.78;;;2.55;;
36989;SDS011;22898;52.102;5.776;2023-06-24T02:39:04;3.08;;;2.60;;
36989;SDS011;22898;52.102;5.776;2023-06-24T02:41:30;3.97;;;2.35;;
36989;SDS011;22898;52.102;5.776;2023-06-24T02:43:56;3.58;;;2.53;;
36989;SDS011;22898;52.102;5.776;2023-06-24T02:46:21;4.47;;;2.85;;
36989;SDS011;22898;52.102;5.776;2023-06-24T02:48:47;4.78;;;2.60;;
36989;SDS011;22898;52.102;5.776;2023-06-24T02:51:14;4.10;;;2.38;;
36989;SDS011;22898;52.102;5.776;2023-06-24T02:53:41;2.95;;;2.20;;
36989;SDS011;22898;52.102;5.776;2023-06-24T02:56:07;4.05;;;2.58;;
36989;SDS011;22898;52.102;5.776;2023-06-24T02:58:33;3.38;;;2.28;;
36989;SDS011;22898;52.102;5.776;2023-06-24T03:01:03;5.82;;;2.50;;
36989;SDS011;22898;52.102;5.776;2023-06-24T03:03:33;5.38;;;4.05;;
36989;SDS011;22898;52.102;5.776;2023-06-24T03:06:00;4.47;;;2.83;;
36989;SDS011;22898;52.102;5.776;2023-06-24T03:08:27;3.83;;;2.63;;
36989;SDS011;22898;52.102;5.776;2023-06-24T03:10:57;7.15;;;3.17;;
36989;SDS011;22898;52.102;5.776;2023-06-24T03:13:23;3.85;;;2.47;;
36989;SDS011;22898;52.102;5.776;2023-06-24T03:15:49;4.53;;;3.10;;
36989;SDS011;22898;52.102;5.776;2023-06-24T03:18:15;5.63;;;3.20;;
36989;SDS011;22898;52.102;5.776;2023-06-24T03:20:42;2.80;;;2.10;;
36989;SDS011;22898;52.102;5.776;2023-06-24T03:23:08;4.93;;;2.72;;
36989;SDS011;22898;52.102;5.776;2023-06-24T03:25:34;3.75;;;2.38;;
36989;SDS011;22898;52.102;5.776;2023-06-24T03:28:00;5.18;;;3.28;;
36989;SDS011;22898;52.102;5.776;2023-06-24T03:30:29;4.90;;;2.83;;
36989;SDS011;22898;52.102;5.776;2023-06-24T03:32:55;5.90;;;3.42;;
36989;SDS011;22898;52.102;5.776;2023-06-24T03:35:23;4.97;;;2.83;;
36989;SDS011;22898;52.102;5.776;2023-06-24T03:37:49;3.92;;;3.05;;
36989;SDS011;22898;52.102;5.776;2023-06-24T03:40:14;4.97;;;2.85;;
36989;SDS011;22898;52.102;5.776;2023-06-24T03:42:40;4.45;;;2.97;;
36989;SDS011;22898;52.102;5.776;2023-06-24T03:45:05;3.67;;;2.65;;
36989;SDS011;22898;52.102;5.776;2023-06-24T03:47:31;3.08;;;2.45;;
36989;SDS011;22898;52.102;5.776;2023-06-24T03:49:57;3.85;;;2.78;;
36989;SDS011;22898;52.102;5.776;2023-06-24T03:52:22;4.57;;;2.30;;
36989;SDS011;22898;52.102;5.776;2023-06-24T03:54:48;7.15;;;3.05;;
36989;SDS011;22898;52.102;5.776;2023-06-24T03:57:14;4.00;;;2.63;;
36989;SDS011;22898;52.102;5.776;2023-06-24T03:59:40;7.57;;;3.17;;
36989;SDS011;22898;52.102;5.776;2023-06-24T04:02:05;4.35;;;2.90;;
36989;SDS011;22898;52.102;5.776;2023-06-24T04:04:34;5.28;;;2.90;;
36989;SDS011;22898;52.102;5.776;2023-06-24T04:07:00;4.90;;;3.13;;
36989;SDS011;22898;52.102;5.776;2023-06-24T04:09:26;5.43;;;3.42;;
36989;SDS011;22898;52.102;5.776;2023-06-24T04:11:52;4.43;;;3.25;;
36989;SDS011;22898;52.102;5.776;2023-06-24T04:14:17;5.40;;;2.67;;
36989;SDS011;22898;52.102;5.776;2023-06-24T04:16:43;4.25;;;2.63;;
36989;SDS011;22898;52.102;5.776;2023-06-24T04:19:08;4.03;;;3.03;;
36989;SDS011;22898;52.102;5.776;2023-06-24T04:21:34;5.53;;;2.88;;
36989;SDS011;22898;52.102;5.776;2023-06-24T04:24:00;6.65;;;3.67;;
36989;SDS011;22898;52.102;5.776;2023-06-24T04:26:25;6.30;;;3.17;;
36989;SDS011;22898;52.102;5.776;2023-06-24T04:28:51;6.38;;;3.00;;
36989;SDS011;22898;52.102;5.776;2023-06-24T04:31:16;5.93;;;3.17;;
36989;SDS011;22898;52.102;5.776;2023-06-24T04:33:42;6.85;;;3.90;;
36989;SDS011;22898;52.102;5.776;2023-06-24T04:36:07;4.40;;;2.65;;
36989;SDS011;22898;52.102;5.776;2023-06-24T04:38:33;5.00;;;3.25;;
36989;SDS011;22898;52.102;5.776;2023-06-24T04:40:58;5.13;;;3.67;;
36989;SDS011;22898;52.102;5.776;2023-06-24T04:43:25;4.93;;;3.08;;
36989;SDS011;22898;52.102;5.776;2023-06-24T04:45:53;4.78;;;3.40;;
36989;SDS011;22898;52.102;5.776;2023-06-24T04:48:20;6.13;;;3.05;;
36989;SDS011;22898;52.102;5.776;2023-06-24T04:50:47;6.10;;;2.97;;
36989;SDS011;22898;52.102;5.776;2023-06-24T04:53:13;4.43;;;3.08;;
36989;SDS011;22898;52.102;5.776;2023-06-24T04:55:38;7.70;;;3.63;;
36989;SDS011;22898;52.102;5.776;2023-06-24T04:58:04;5.30;;;3.15;;
36989;SDS011;22898;52.102;5.776;2023-06-24T05:00:29;4.25;;;2.97;;
36989;SDS011;22898;52.102;5.776;2023-06-24T05:02:55;4.90;;;3.38;;
36989;SDS011;22898;52.102;5.776;2023-06-24T05:05:20;8.80;;;3.80;;
36989;SDS011;22898;52.102;5.776;2023-06-24T05:07:46;6.13;;;3.83;;
36989;SDS011;22898;52.102;5.776;2023-06-24T05:10:12;6.35;;;3.75;;
36989;SDS011;22898;52.102;5.776;2023-06-24T05:12:37;5.63;;;3.28;;
36989;SDS011;22898;52.102;5.776;2023-06-24T05:15:03;7.25;;;3.92;;
36989;SDS011;22898;52.102;5.776;2023-06-24T05:17:29;7.03;;;3.50;;
36989;SDS011;22898;52.102;5.776;2023-06-24T05:19:55;5.75;;;3.35;;
36989;SDS011;22898;52.102;5.776;2023-06-24T05:22:20;5.45;;;3.28;;
36989;SDS011;22898;52.102;5.776;2023-06-24T05:24:46;3.80;;;2.60;;
36989;SDS011;22898;52.102;5.776;2023-06-24T05:27:11;5.00;;;2.80;;
36989;SDS011;22898;52.102;5.776;2023-06-24T05:29:37;4.65;;;3.17;;
36989;SDS011;22898;52.102;5.776;2023-06-24T05:32:03;7.07;;;3.33;;
36989;SDS011;22898;52.102;5.776;2023-06-24T05:34:29;4.00;;;2.78;;
36989;SDS011;22898;52.102;5.776;2023-06-24T05:36:55;3.90;;;2.83;;
36989;SDS011;22898;52.102;5.776;2023-06-24T05:39:21;3.85;;;2.53;;
36989;SDS011;22898;52.102;5.776;2023-06-24T05:41:47;2.83;;;1.80;;
36989;SDS011;22898;52.102;5.776;2023-06-24T05:44:15;4.80;;;3.03;;
36989;SDS011;22898;52.102;5.776;2023-06-24T05:46:43;3.13;;;1.70;;
36989;SDS011;22898;52.102;5.776;2023-06-24T05:49:11;2.22;;;1.58;;
36989;SDS011;22898;52.102;5.776;2023-06-24T05:51:37;3.80;;;2.22;;
36989;SDS011;22898;52.102;5.776;2023-06-24T05:54:03;3.53;;;2.13;;
36989;SDS011;22898;52.102;5.776;2023-06-24T05:56:29;4.93;;;1.90;;
36989;SDS011;22898;52.102;5.776;2023-06-24T05:58:55;3.72;;;2.40;;
36989;SDS011;22898;52.102;5.776;2023-06-24T06:01:20;3.10;;;1.80;;
36989;SDS011;22898;52.102;5.776;2023-06-24T06:03:46;3.88;;;2.50;;
36989;SDS011;22898;52.102;5.776;2023-06-24T06:06:11;2.10;;;1.33;;
36989;SDS011;22898;52.102;5.776;2023-06-24T06:08:37;3.13;;;1.60;;
36989;SDS011;22898;52.102;5.776;2023-06-24T06:11:03;3.17;;;2.33;;
36989;SDS011;22898;52.102;5.776;2023-06-24T06:13:29;3.53;;;1.90;;
36989;SDS011;22898;52.102;5.776;2023-06-24T06:15:56;4.00;;;2.00;;
36989;SDS011;22898;52.102;5.776;2023-06-24T06:18:22;2.22;;;1.70;;
36989;SDS011;22898;52.102;5.776;2023-06-24T06:20:48;1.55;;;1.02;;
36989;SDS011;22898;52.102;5.776;2023-06-24T06:23:14;2.30;;;1.52;;
36989;SDS011;22898;52.102;5.776;2023-06-24T06:25:40;4.03;;;1.75;;
36989;SDS011;22898;52.102;5.776;2023-06-24T06:28:06;3.08;;;1.90;;
36989;SDS011;22898;52.102;5.776;2023-06-24T06:30:32;1.85;;;1.20;;
36989;SDS011;22898;52.102;5.776;2023-06-24T06:32:57;2.15;;;1.35;;
36989;SDS011;22898;52.102;5.776;2023-06-24T06:35:23;3.42;;;1.75;;
36989;SDS011;22898;52.102;5.776;2023-06-24T06:37:48;2.92;;;1.48;;
36989;SDS011;22898;52.102;5.776;2023-06-24T06:40:20;2.30;;;1.35;;
36989;SDS011;22898;52.102;5.776;2023-06-24T06:42:46;1.95;;;1.38;;
36989;SDS011;22898;52.102;5.776;2023-06-24T06:45:12;3.20;;;2.17;;
36989;SDS011;22898;52.102;5.776;2023-06-24T06:47:38;2.20;;;1.30;;
36989;SDS011;22898;52.102;5.776;2023-06-24T06:50:04;1.95;;;1.33;;
36989;SDS011;22898;52.102;5.776;2023-06-24T06:52:30;1.73;;;1.30;;
36989;SDS011;22898;52.102;5.776;2023-06-24T06:54:55;5.03;;;1.70;;
36989;SDS011;22898;52.102;5.776;2023-06-24T06:57:21;3.40;;;1.90;;
36989;SDS011;22898;52.102;5.776;2023-06-24T06:59:47;2.35;;;1.42;;
36989;SDS011;22898;52.102;5.776;2023-06-24T07:02:15;2.13;;;1.20;;
36989;SDS011;22898;52.102;5.776;2023-06-24T07:04:42;4.20;;;1.73;;
36989;SDS011;22898;52.102;5.776;2023-06-24T07:07:08;1.60;;;1.30;;
36989;SDS011;22898;52.102;5.776;2023-06-24T07:09:33;2.55;;;1.65;;
36989;SDS011;22898;52.102;5.776;2023-06-24T07:11:59;2.65;;;1.70;;
36989;SDS011;22898;52.102;5.776;2023-06-24T07:14:24;1.63;;;1.13;;
36989;SDS011;22898;52.102;5.776;2023-06-24T07:16:50;2.08;;;1.30;;
36989;SDS011;22898;52.102;5.776;2023-06-24T07:19:16;2.97;;;1.52;;
36989;SDS011;22898;52.102;5.776;2023-06-24T07:21:41;1.85;;;1.35;;
36989;SDS011;22898;52.102;5.776;2023-06-24T07:24:07;1.75;;;1.20;;
36989;SDS011;22898;52.102;5.776;2023-06-24T07:26:32;3.60;;;1.30;;
36989;SDS011;22898;52.102;5.776;2023-06-24T07:28:58;3.30;;;1.45;;
36989;SDS011;22898;52.102;5.776;2023-06-24T07:31:24;1.42;;;1.10;;
36989;SDS011;22898;52.102;5.776;2023-06-24T07:33:50;3.08;;;1.10;;
36989;SDS011;22898;52.102;5.776;2023-06-24T07:36:15;1.88;;;1.27;;
36989;SDS011;22898;52.102;5.776;2023-06-24T07:38:41;2.22;;;1.33;;
36989;SDS011;22898;52.102;5.776;2023-06-24T07:41:07;1.60;;;0.85;;
36989;SDS011;22898;52.102;5.776;2023-06-24T07:43:32;1.25;;;0.77;;
36989;SDS011;22898;52.102;5.776;2023-06-24T07:45:58;1.38;;;0.75;;
36989;SDS011;22898;52.102;5.776;2023-06-24T07:48:23;1.48;;;1.08;;
36989;SDS011;22898;52.102;5.776;2023-06-24T07:50:49;1.27;;;1.00;;
36989;SDS011;22898;52.102;5.776;2023-06-24T07:53:14;1.45;;;0.90;;
36989;SDS011;22898;52.102;5.776;2023-06-24T07:55:40;1.35;;;0.88;;
36989;SDS011;22898;52.102;5.776;2023-06-24T07:58:06;2.13;;;1.08;;
36989;SDS011;22898;52.102;5.776;2023-06-24T08:00:31;0.90;;;0.82;;
36989;SDS011;22898;52.102;5.776;2023-06-24T08:02:58;1.27;;;0.82;;
36989;SDS011;22898;52.102;5.776;2023-06-24T08:05:24;1.58;;;1.05;;
36989;SDS011;22898;52.102;5.776;2023-06-24T08:07:50;1.70;;;1.08;;
36989;SDS011;22898;52.102;5.776;2023-06-24T08:10:16;3.05;;;1.30;;
36989;SDS011;22898;52.102;5.776;2023-06-24T08:12:42;1.33;;;1.05;;
36989;SDS011;22898;52.102;5.776;2023-06-24T08:15:08;1.38;;;0.80;;
36989;SDS011;22898;52.102;5.776;2023-06-24T08:17:34;2.10;;;1.05;;
36989;SDS011;22898;52.102;5.776;2023-06-24T08:20:00;1.90;;;0.93;;
36989;SDS011;22898;52.102;5.776;2023-06-24T08:22:29;1.08;;;0.85;;
36989;SDS011;22898;52.102;5.776;2023-06-24T08:24:55;0.93;;;0.70;;
36989;SDS011;22898;52.102;5.776;2023-06-24T08:27:21;0.82;;;0.70;;
36989;SDS011;22898;52.102;5.776;2023-06-24T08:29:46;1.60;;;1.30;;
36989;SDS011;22898;52.102;5.776;2023-06-24T08:32:12;1.23;;;1.00;;
36989;SDS011;22898;52.102;5.776;2023-06-24T08:34:37;1.08;;;0.90;;
36989;SDS011;22898;52.102;5.776;2023-06-24T08:37:03;1.05;;;0.85;;
36989;SDS011;22898;52.102;5.776;2023-06-24T08:39:29;1.15;;;0.80;;
36989;SDS011;22898;52.102;5.776;2023-06-24T08:41:54;5.35;;;1.38;;
36989;SDS011;22898;52.102;5.776;2023-06-24T08:44:20;1.23;;;0.80;;
36989;SDS011;22898;52.102;5.776;2023-06-24T08:46:45;2.05;;;1.20;;
36989;SDS011;22898;52.102;5.776;2023-06-24T08:51:46;2.30;;;1.20;;
36989;SDS011;22898;52.102;5.776;2023-06-24T08:54:19;1.27;;;0.85;;
36989;SDS011;22898;52.102;5.776;2023-06-24T08:56:46;1.48;;;0.95;;
36989;SDS011;22898;52.102;5.776;2023-06-24T08:59:11;1.65;;;0.95;;
36989;SDS011;22898;52.102;5.776;2023-06-24T09:01:37;2.33;;;1.30;;
36989;SDS011;22898;52.102;5.776;2023-06-24T09:04:04;1.92;;;1.15;;
36989;SDS011;22898;52.102;5.776;2023-06-24T09:06:30;2.30;;;1.10;;
36989;SDS011;22898;52.102;5.776;2023-06-24T09:08:56;1.42;;;0.93;;
36989;SDS011;22898;52.102;5.776;2023-06-24T09:11:26;2.40;;;1.05;;
36989;SDS011;22898;52.102;5.776;2023-06-24T09:13:59;1.77;;;0.95;;
36989;SDS011;22898;52.102;5.776;2023-06-24T09:16:25;2.13;;;1.30;;
36989;SDS011;22898;52.102;5.776;2023-06-24T09:18:51;0.88;;;0.85;;
36989;SDS011;22898;52.102;5.776;2023-06-24T09:21:24;2.05;;;1.20;;
36989;SDS011;22898;52.102;5.776;2023-06-24T09:23:54;1.05;;;0.88;;
36989;SDS011;22898;52.102;5.776;2023-06-24T09:26:24;1.35;;;1.20;;
36989;SDS011;22898;52.102;5.776;2023-06-24T09:28:50;1.58;;;1.42;;
36989;SDS011;22898;52.102;5.776;2023-06-24T09:31:16;2.35;;;1.30;;
36989;SDS011;22898;52.102;5.776;2023-06-24T09:33:43;2.20;;;1.10;;
36989;SDS011;22898;52.102;5.776;2023-06-24T09:36:12;4.13;;;1.55;;
36989;SDS011;22898;52.102;5.776;2023-06-24T09:38:44;2.13;;;1.15;;
36989;SDS011;22898;52.102;5.776;2023-06-24T09:41:10;2.63;;;1.50;;
36989;SDS011;22898;52.102;5.776;2023-06-24T09:43:38;1.08;;;0.98;;
36989;SDS011;22898;52.102;5.776;2023-06-24T09:46:07;2.65;;;1.35;;
36989;SDS011;22898;52.102;5.776;2023-06-24T09:48:33;2.22;;;1.27;;
36989;SDS011;22898;52.102;5.776;2023-06-24T09:51:00;1.65;;;1.30;;
36989;SDS011;22898;52.102;5.776;2023-06-24T09:53:30;2.00;;;1.20;;
36989;SDS011;22898;52.102;5.776;2023-06-24T09:55:58;1.77;;;1.23;;
36989;SDS011;22898;52.102;5.776;2023-06-24T09:58:25;2.95;;;1.38;;
36989;SDS011;22898;52.102;5.776;2023-06-24T10:00:52;2.05;;;1.50;;
36989;SDS011;22898;52.102;5.776;2023-06-24T10:03:20;2.65;;;1.90;;
36989;SDS011;22898;52.102;5.776;2023-06-24T10:05:46;2.45;;;1.23;;
36989;SDS011;22898;52.102;5.776;2023-06-24T10:08:13;3.08;;;1.35;;
36989;SDS011;22898;52.102;5.776;2023-06-24T10:10:39;2.10;;;1.40;;
36989;SDS011;22898;52.102;5.776;2023-06-24T10:13:04;3.92;;;1.80;;
36989;SDS011;22898;52.102;5.776;2023-06-24T10:15:31;3.35;;;1.65;;
36989;SDS011;22898;52.102;5.776;2023-06-24T10:18:00;2.10;;;1.48;;
36989;SDS011;22898;52.102;5.776;2023-06-24T10:20:27;2.42;;;1.27;;
36989;SDS011;22898;52.102;5.776;2023-06-24T10:22:53;1.95;;;1.40;;
36989;SDS011;22898;52.102;5.776;2023-06-24T10:25:18;5.07;;;1.48;;
36989;SDS011;22898;52.102;5.776;2023-06-24T10:27:45;2.90;;;2.15;;
36989;SDS011;22898;52.102;5.776;2023-06-24T10:30:17;3.15;;;1.98;;
36989;SDS011;22898;52.102;5.776;2023-06-24T10:32:50;3.15;;;1.58;;
36989;SDS011;22898;52.102;5.776;2023-06-24T10:35:27;2.10;;;1.45;;
36989;SDS011;22898;52.102;5.776;2023-06-24T10:37:56;2.72;;;1.42;;
36989;SDS011;22898;52.102;5.776;2023-06-24T10:40:35;3.30;;;1.95;;
36989;SDS011;22898;52.102;5.776;2023-06-24T10:43:04;3.65;;;1.35;;
36989;SDS011;22898;52.102;5.776;2023-06-24T10:45:52;2.70;;;1.77;;
36989;SDS011;22898;52.102;5.776;2023-06-24T10:48:18;2.65;;;1.85;;
36989;SDS011;22898;52.102;5.776;2023-06-24T10:50:45;1.90;;;1.50;;
36989;SDS011;22898;52.102;5.776;2023-06-24T10:53:12;5.22;;;2.05;;
36989;SDS011;22898;52.102;5.776;2023-06-24T10:55:39;2.75;;;1.65;;
36989;SDS011;22898;52.102;5.776;2023-06-24T10:58:08;3.28;;;2.05;;
36989;SDS011;22898;52.102;5.776;2023-06-24T11:00:40;2.88;;;1.95;;
36989;SDS011;22898;52.102;5.776;2023-06-24T11:03:10;2.05;;;1.60;;
36989;SDS011;22898;52.102;5.776;2023-06-24T11:05:40;2.80;;;1.80;;
36989;SDS011;22898;52.102;5.776;2023-06-24T11:08:07;2.45;;;1.50;;
36989;SDS011;22898;52.102;5.776;2023-06-24T11:10:33;2.33;;;1.58;;
36989;SDS011;22898;52.102;5.776;2023-06-24T11:13:13;3.30;;;2.42;;
36989;SDS011;22898;52.102;5.776;2023-06-24T11:15:39;2.72;;;1.65;;
36989;SDS011;22898;52.102;5.776;2023-06-24T11:18:07;2.13;;;1.48;;
36989;SDS011;22898;52.102;5.776;2023-06-24T11:20:35;2.22;;;1.48;;
36989;SDS011;22898;52.102;5.776;2023-06-24T11:23:02;2.60;;;1.83;;
36989;SDS011;22898;52.102;5.776;2023-06-24T11:25:31;2.58;;;1.50;;
36989;SDS011;22898;52.102;5.776;2023-06-24T11:27:57;4.07;;;1.80;;
36989;SDS011;22898;52.102;5.776;2023-06-24T11:30:22;2.20;;;1.50;;
36989;SDS011;22898;52.102;5.776;2023-06-24T11:32:48;4.43;;;2.05;;
36989;SDS011;22898;52.102;5.776;2023-06-24T11:35:15;3.45;;;1.95;;
36989;SDS011;22898;52.102;5.776;2023-06-24T11:37:42;2.53;;;1.80;;
36989;SDS011;22898;52.102;5.776;2023-06-24T11:40:09;2.60;;;1.70;;
36989;SDS011;22898;52.102;5.776;2023-06-24T11:42:36;3.42;;;1.45;;
36989;SDS011;22898;52.102;5.776;2023-06-24T11:45:09;2.72;;;1.65;;
36989;SDS011;22898;52.102;5.776;2023-06-24T11:47:39;2.15;;;1.55;;
36989;SDS011;22898;52.102;5.776;2023-06-24T11:50:05;2.80;;;1.27;;
36989;SDS011;22898;52.102;5.776;2023-06-24T11:55:01;3.08;;;1.77;;
36989;SDS011;22898;52.102;5.776;2023-06-24T12:02:58;2.78;;;1.60;;
36989;SDS011;22898;52.102;5.776;2023-06-24T12:05:26;3.15;;;1.60;;
36989;SDS011;22898;52.102;5.776;2023-06-24T12:08:06;3.65;;;1.75;;
36989;SDS011;22898;52.102;5.776;2023-06-24T12:10:34;2.45;;;1.70;;
36989;SDS011;22898;52.102;5.776;2023-06-24T12:13:00;2.05;;;1.52;;
36989;SDS011;22898;52.102;5.776;2023-06-24T12:15:27;2.90;;;1.65;;
36989;SDS011;22898;52.102;5.776;2023-06-24T12:17:53;3.63;;;1.48;;
36989;SDS011;22898;52.102;5.776;2023-06-24T12:20:18;2.00;;;1.50;;
36989;SDS011;22898;52.102;5.776;2023-06-24T12:22:44;2.55;;;1.98;;
36989;SDS011;22898;52.102;5.776;2023-06-24T12:25:11;3.40;;;1.77;;
36989;SDS011;22898;52.102;5.776;2023-06-24T12:27:37;2.53;;;1.48;;
36989;SDS011;22898;52.102;5.776;2023-06-24T12:30:03;4.00;;;1.80;;
36989;SDS011;22898;52.102;5.776;2023-06-24T12:32:29;2.17;;;1.63;;
36989;SDS011;22898;52.102;5.776;2023-06-24T12:34:55;1.90;;;1.10;;
36989;SDS011;22898;52.102;5.776;2023-06-24T12:37:21;2.35;;;1.70;;
36989;SDS011;22898;52.102;5.776;2023-06-24T12:39:47;1.88;;;1.27;;
36989;SDS011;22898;52.102;5.776;2023-06-24T12:42:12;3.15;;;1.73;;
36989;SDS011;22898;52.102;5.776;2023-06-24T12:44:38;8.35;;;2.45;;
36989;SDS011;22898;52.102;5.776;2023-06-24T12:47:04;2.85;;;1.65;;
36989;SDS011;22898;52.102;5.776;2023-06-24T12:49:30;2.63;;;1.40;;
36989;SDS011;22898;52.102;5.776;2023-06-24T12:51:55;2.28;;;1.40;;
36989;SDS011;22898;52.102;5.776;2023-06-24T12:54:21;2.13;;;1.50;;
36989;SDS011;22898;52.102;5.776;2023-06-24T12:56:46;3.47;;;1.50;;
36989;SDS011;22898;52.102;5.776;2023-06-24T12:59:12;1.92;;;1.55;;
36989;SDS011;22898;52.102;5.776;2023-06-24T13:01:37;2.58;;;1.48;;
36989;SDS011;22898;52.102;5.776;2023-06-24T13:04:03;3.65;;;2.10;;
36989;SDS011;22898;52.102;5.776;2023-06-24T13:06:29;2.50;;;1.58;;
36989;SDS011;22898;52.102;5.776;2023-06-24T13:08:54;2.35;;;1.60;;
36989;SDS011;22898;52.102;5.776;2023-06-24T13:11:20;3.28;;;1.45;;
36989;SDS011;22898;52.102;5.776;2023-06-24T13:13:46;5.13;;;1.98;;
36989;SDS011;22898;52.102;5.776;2023-06-24T13:16:11;2.65;;;1.45;;
36989;SDS011;22898;52.102;5.776;2023-06-24T13:18:37;3.33;;;1.90;;
36989;SDS011;22898;52.102;5.776;2023-06-24T13:21:03;2.92;;;1.90;;
36989;SDS011;22898;52.102;5.776;2023-06-24T13:23:28;3.17;;;2.10;;
36989;SDS011;22898;52.102;5.776;2023-06-24T13:25:54;3.42;;;1.92;;
36989;SDS011;22898;52.102;5.776;2023-06-24T13:28:19;3.10;;;1.35;;
36989;SDS011;22898;52.102;5.776;2023-06-24T13:30:45;2.85;;;1.48;;
36989;SDS011;22898;52.102;5.776;2023-06-24T13:33:10;2.63;;;1.70;;
36989;SDS011;22898;52.102;5.776;2023-06-24T13:35:36;6.25;;;2.20;;
36989;SDS011;22898;52.102;5.776;2023-06-24T13:38:01;3.80;;;2.17;;
36989;SDS011;22898;52.102;5.776;2023-06-24T13:40:27;2.08;;;1.50;;
36989;SDS011;22898;52.102;5.776;2023-06-24T13:42:53;2.97;;;1.95;;
36989;SDS011;22898;52.102;5.776;2023-06-24T13:45:18;1.83;;;1.30;;
36989;SDS011;22898;52.102;5.776;2023-06-24T13:47:44;4.93;;;2.13;;
36989;SDS011;22898;52.102;5.776;2023-06-24T13:50:10;3.05;;;2.13;;
36989;SDS011;22898;52.102;5.776;2023-06-24T13:52:35;2.47;;;1.67;;
36989;SDS011;22898;52.102;5.776;2023-06-24T13:55:01;2.78;;;1.95;;
36989;SDS011;22898;52.102;5.776;2023-06-24T13:57:27;2.00;;;1.77;;
36989;SDS011;22898;52.102;5.776;2023-06-24T13:59:52;2.72;;;1.85;;
36989;SDS011;22898;52.102;5.776;2023-06-24T14:02:18;3.47;;;2.00;;
36989;SDS011;22898;52.102;5.776;2023-06-24T14:04:44;2.45;;;1.77;;
36989;SDS011;22898;52.102;5.776;2023-06-24T14:07:09;2.95;;;1.70;;
36989;SDS011;22898;52.102;5.776;2023-06-24T14:09:36;3.10;;;1.73;;
36989;SDS011;22898;52.102;5.776;2023-06-24T14:12:03;3.03;;;2.10;;
36989;SDS011;22898;52.102;5.776;2023-06-24T14:14:29;3.03;;;1.70;;
36989;SDS011;22898;52.102;5.776;2023-06-24T14:16:55;3.17;;;2.13;;
36989;SDS011;22898;52.102;5.776;2023-06-24T14:19:20;2.53;;;1.60;;
36989;SDS011;22898;52.102;5.776;2023-06-24T14:21:46;3.50;;;1.48;;
36989;SDS011;22898;52.102;5.776;2023-06-24T14:24:11;3.33;;;1.90;;
36989;SDS011;22898;52.102;5.776;2023-06-24T14:26:37;3.17;;;1.67;;
36989;SDS011;22898;52.102;5.776;2023-06-24T14:29:03;3.03;;;1.77;;
36989;SDS011;22898;52.102;5.776;2023-06-24T14:31:29;2.95;;;1.95;;
36989;SDS011;22898;52.102;5.776;2023-06-24T14:33:55;4.28;;;2.10;;
36989;SDS011;22898;52.102;5.776;2023-06-24T14:36:20;3.65;;;1.95;;
36989;SDS011;22898;52.102;5.776;2023-06-24T14:38:46;2.83;;;1.90;;
36989;SDS011;22898;52.102;5.776;2023-06-24T14:41:11;3.55;;;2.30;;
36989;SDS011;22898;52.102;5.776;2023-06-24T14:43:37;2.65;;;2.17;;
36989;SDS011;22898;52.102;5.776;2023-06-24T14:46:03;2.65;;;1.85;;
36989;SDS011;22898;52.102;5.776;2023-06-24T14:48:29;2.97;;;2.15;;
36989;SDS011;22898;52.102;5.776;2023-06-24T14:50:54;3.30;;;1.95;;
36989;SDS011;22898;52.102;5.776;2023-06-24T14:53:20;3.65;;;2.20;;
36989;SDS011;22898;52.102;5.776;2023-06-24T14:55:46;2.97;;;1.90;;
36989;SDS011;22898;52.102;5.776;2023-06-24T14:58:11;4.30;;;2.85;;
36989;SDS011;22898;52.102;5.776;2023-06-24T15:00:37;2.83;;;2.00;;
36989;SDS011;22898;52.102;5.776;2023-06-24T15:03:03;5.63;;;2.67;;
36989;SDS011;22898;52.102;5.776;2023-06-24T15:05:29;3.15;;;2.13;;
36989;SDS011;22898;52.102;5.776;2023-06-24T15:07:54;2.67;;;1.98;;